Time;durP1;ratioP1;P1;durP2;ratioP2;P2;SDS_P1;SDS_P2;PMS_P1;PMS_P2;Temp;Humidity;BMP_temperature;BMP_pressure;BME280_temperature;BME280_humidity;BME280_pressure;Samples;Min_cycle;Max_cycle;Signal;HPM_P1;HPM_P2
2024/02/14 00:01:31;;;;;;;7.28;4.10;;;8.30;99.90;;;;;;5061558;28;20044;-71
2024/02/14 00:03:56;;;;;;;7.60;4.85;;;8.30;99.90;;;;;;5068782;28;20033;-72
2024/02/14 00:06:23;;;;;;;8.30;4.78;;;8.40;99.90;;;;;;5042574;28;20055;-73
2024/02/14 00:08:49;;;;;;;8.35;4.90;;;8.40;99.90;;;;;;5062401;28;20047;-73
2024/02/14 00:11:14;;;;;;;7.63;4.72;;;8.40;99.90;;;;;;5060819;28;20520;-71
2024/02/14 00:13:40;;;;;;;9.70;4.80;;;8.40;99.90;;;;;;5056445;28;20040;-72
2024/02/14 00:16:06;;;;;;;9.57;4.70;;;8.50;99.90;;;;;;5056442;28;20036;-74
2024/02/14 00:18:32;;;;;;;9.38;5.05;;;8.50;99.90;;;;;;5057989;28;20031;-69
2024/02/14 00:20:57;;;;;;;8.73;5.30;;;8.50;99.90;;;;;;5062834;28;20104;-72
2024/02/14 00:23:23;;;;;;;10.18;4.68;;;8.40;99.90;;;;;;5067700;28;20043;-73
2024/02/14 00:25:48;;;;;;;8.00;5.22;;;8.50;99.90;;;;;;5063945;28;20033;-72
2024/02/14 00:28:14;;;;;;;10.35;5.32;;;8.50;99.90;;;;;;5067851;28;20449;-71
2024/02/14 00:30:39;;;;;;;11.98;5.43;;;8.50;99.90;;;;;;5045148;28;20035;-73
2024/02/14 00:33:05;;;;;;;11.43;5.80;;;8.60;99.90;;;;;;5046575;28;20456;-72
2024/02/14 00:35:31;;;;;;;8.60;5.05;;;8.60;99.90;;;;;;5043424;28;20494;-73
2024/02/14 00:37:56;;;;;;;8.10;5.30;;;8.60;99.90;;;;;;5045595;28;20032;-71
2024/02/14 00:40:22;;;;;;;8.75;5.00;;;8.70;99.90;;;;;;5044737;28;20493;-72
2024/02/14 00:42:48;;;;;;;12.25;5.53;;;8.70;99.90;;;;;;5047276;28;20025;-72
2024/02/14 00:45:13;;;;;;;10.85;5.43;;;8.70;99.90;;;;;;5047333;28;20041;-71
2024/02/14 00:47:39;;;;;;;11.13;6.55;;;8.80;99.90;;;;;;5048564;28;20041;-72
2024/02/14 00:50:05;;;;;;;14.50;5.55;;;8.80;99.90;;;;;;5021586;28;20080;-73
2024/02/14 00:52:31;;;;;;;9.02;5.35;;;8.80;99.90;;;;;;5043523;28;20086;-73
2024/02/14 00:54:57;;;;;;;9.13;5.72;;;8.90;99.90;;;;;;5041757;28;20505;-72
2024/02/14 00:57:25;;;;;;;9.90;5.72;;;8.90;99.90;;;;;;5044696;28;20029;-72
2024/02/14 00:59:52;;;;;;;11.90;6.13;;;8.90;99.90;;;;;;5044405;28;20124;-73
2024/02/14 01:02:18;;;;;;;12.27;5.45;;;8.90;99.90;;;;;;5046103;28;20033;-71
2024/02/14 01:04:43;;;;;;;11.18;6.18;;;8.90;99.90;;;;;;5045847;28;20116;-73
2024/02/14 01:07:09;;;;;;;11.35;5.88;;;8.90;99.90;;;;;;5018636;28;20037;-73
2024/02/14 01:09:36;;;;;;;15.07;5.93;;;8.90;99.90;;;;;;5026184;28;21690;-71
2024/02/14 01:12:02;;;;;;;9.18;5.55;;;8.90;99.90;;;;;;5043776;28;20452;-71
2024/02/14 01:14:27;;;;;;;10.02;5.60;;;8.90;99.90;;;;;;5043761;28;20025;-73
2024/02/14 01:16:54;;;;;;;15.80;6.00;;;8.90;99.90;;;;;;5043943;28;20501;-71
2024/02/14 01:19:19;;;;;;;11.15;5.45;;;9.00;99.90;;;;;;5044128;28;20029;-71
2024/02/14 01:21:48;;;;;;;12.63;5.72;;;8.90;99.90;;;;;;5025319;28;20041;-72
2024/02/14 01:24:14;;;;;;;15.38;6.43;;;8.90;99.90;;;;;;5022129;28;20401;-72
2024/02/14 01:26:40;;;;;;;10.13;6.00;;;9.00;99.90;;;;;;5043537;28;20034;-74
2024/02/14 01:29:06;;;;;;;11.13;6.75;;;9.00;99.90;;;;;;5056043;28;20036;-72
2024/02/14 01:31:33;;;;;;;12.13;6.43;;;9.00;99.90;;;;;;5062133;28;20086;-73
2024/02/14 01:33:59;;;;;;;9.25;6.05;;;9.00;99.90;;;;;;5044845;28;20070;-72
2024/02/14 01:36:24;;;;;;;11.35;5.53;;;9.00;99.90;;;;;;5046671;28;20037;-71
2024/02/14 01:38:50;;;;;;;12.00;6.35;;;9.00;99.90;;;;;;5061464;28;20021;-72
2024/02/14 01:41:15;;;;;;;12.65;6.22;;;9.10;99.90;;;;;;5055647;28;20032;-72
2024/02/14 01:43:41;;;;;;;14.02;6.10;;;9.10;99.90;;;;;;5040345;28;20036;-72
2024/02/14 01:46:07;;;;;;;13.63;6.65;;;9.10;99.90;;;;;;5045509;28;20040;-73
2024/02/14 01:48:37;;;;;;;14.02;6.30;;;9.10;99.90;;;;;;5050985;28;20725;-70
2024/02/14 01:51:04;;;;;;;13.52;6.93;;;9.10;99.90;;;;;;5045001;28;20486;-72
2024/02/14 01:53:30;;;;;;;14.88;6.88;;;9.20;99.90;;;;;;5046092;28;20029;-73
2024/02/14 01:55:58;;;;;;;12.82;6.38;;;9.20;99.90;;;;;;5045115;28;20049;-73
2024/02/14 01:58:24;;;;;;;11.45;6.10;;;9.30;99.90;;;;;;5046065;28;20036;-73
2024/02/14 02:00:55;;;;;;;12.48;5.90;;;9.30;99.90;;;;;;5041718;28;20017;-71
2024/02/14 02:03:22;;;;;;;12.88;5.95;;;9.30;99.90;;;;;;5043159;28;20032;-73
2024/02/14 02:05:48;;;;;;;11.10;6.03;;;9.30;99.90;;;;;;5041181;28;20036;-72
2024/02/14 02:08:14;;;;;;;12.25;6.45;;;9.30;99.90;;;;;;5042431;28;21527;-71
2024/02/14 02:10:40;;;;;;;11.98;6.20;;;9.30;99.90;;;;;;5039811;28;20038;-74
2024/02/14 02:13:06;;;;;;;13.43;6.43;;;9.30;99.90;;;;;;5041281;28;20071;-71
2024/02/14 02:15:31;;;;;;;10.63;6.00;;;9.30;99.90;;;;;;5044862;28;20549;-72
2024/02/14 02:17:59;;;;;;;9.88;5.97;;;9.30;99.90;;;;;;5039802;28;20029;-73
2024/02/14 02:20:27;;;;;;;11.15;6.13;;;9.30;99.90;;;;;;5039582;28;20083;-72
2024/02/14 02:22:53;;;;;;;12.05;5.97;;;9.40;99.90;;;;;;5044637;28;20029;-71
2024/02/14 02:25:23;;;;;;;8.82;5.32;;;9.30;99.90;;;;;;5050690;28;20048;-72
2024/02/14 02:27:48;;;;;;;9.32;5.75;;;9.30;99.90;;;;;;5048174;28;20408;-72
2024/02/14 02:30:14;;;;;;;9.23;5.95;;;9.30;99.90;;;;;;5045100;28;20041;-72
2024/02/14 02:32:41;;;;;;;10.43;5.72;;;9.40;99.90;;;;;;5041441;28;20055;-73
2024/02/14 02:35:06;;;;;;;11.20;5.63;;;9.40;99.90;;;;;;5045744;28;20039;-72
2024/02/14 02:37:33;;;;;;;12.43;6.53;;;9.40;99.90;;;;;;5042090;28;20123;-72
2024/02/14 02:39:59;;;;;;;11.48;5.78;;;9.40;99.90;;;;;;5047988;28;20032;-72
2024/02/14 02:42:24;;;;;;;9.40;5.57;;;9.40;99.90;;;;;;5050372;28;20037;-72
2024/02/14 02:44:53;;;;;;;21.05;6.80;;;9.30;99.90;;;;;;5047547;28;20033;-70
2024/02/14 02:47:18;;;;;;;10.80;5.90;;;9.30;99.90;;;;;;5043131;28;20041;-73
2024/02/14 02:49:44;;;;;;;10.27;5.32;;;9.40;99.90;;;;;;5038915;28;20396;-72
2024/02/14 02:52:10;;;;;;;9.85;5.00;;;9.30;99.90;;;;;;5045401;28;20417;-72
2024/02/14 02:54:36;;;;;;;8.63;5.03;;;9.40;99.90;;;;;;5047868;28;20067;-72
2024/02/14 02:57:05;;;;;;;10.63;5.95;;;9.40;99.90;;;;;;5043586;28;20138;-72
2024/02/14 02:59:31;;;;;;;13.88;6.53;;;9.40;99.90;;;;;;5047388;28;20036;-72
2024/02/14 03:01:57;;;;;;;9.07;5.65;;;9.40;99.90;;;;;;5047732;28;20087;-73
2024/02/14 03:04:24;;;;;;;8.93;5.22;;;9.40;99.90;;;;;;5044578;28;20037;-73
2024/02/14 03:06:49;;;;;;;11.68;6.28;;;9.40;99.90;;;;;;5041572;28;20025;-72
2024/02/14 03:09:15;;;;;;;17.55;7.18;;;9.40;99.90;;;;;;5042774;28;20739;-71
2024/02/14 03:11:40;;;;;;;13.90;5.60;;;9.40;99.90;;;;;;5042496;28;20053;-71
2024/02/14 03:14:07;;;;;;;11.20;5.93;;;9.40;99.90;;;;;;5046556;28;20048;-73
2024/02/14 03:16:33;;;;;;;12.07;6.57;;;9.40;99.90;;;;;;5041973;28;20045;-72
2024/02/14 03:18:59;;;;;;;9.80;5.80;;;9.50;99.90;;;;;;5041260;28;20029;-72
2024/02/14 03:21:25;;;;;;;13.10;5.90;;;9.40;99.90;;;;;;5038730;28;20545;-72
2024/02/14 03:23:50;;;;;;;13.35;6.45;;;9.50;99.90;;;;;;5038273;28;20065;-73
2024/02/14 03:26:16;;;;;;;18.00;5.85;;;9.50;99.90;;;;;;5041264;28;20033;-73
2024/02/14 03:28:41;;;;;;;17.10;6.53;;;9.50;99.90;;;;;;5038694;28;20091;-74
2024/02/14 03:31:07;;;;;;;11.88;6.03;;;9.50;99.90;;;;;;5038484;28;20029;-73
2024/02/14 03:33:32;;;;;;;14.48;5.88;;;9.50;99.90;;;;;;5036169;28;20057;-73
2024/02/14 03:35:58;;;;;;;14.20;5.82;;;9.60;99.90;;;;;;5038583;28;20463;-70
2024/02/14 03:38:27;;;;;;;13.35;6.13;;;9.60;99.90;;;;;;5038838;28;20082;-73
2024/02/14 03:40:53;;;;;;;17.00;6.25;;;9.60;99.90;;;;;;5037114;28;20029;-72
2024/02/14 03:43:19;;;;;;;16.92;6.20;;;9.60;99.90;;;;;;5039193;28;20036;-70
2024/02/14 03:45:44;;;;;;;24.35;7.65;;;9.70;99.90;;;;;;5044389;28;20423;-72
2024/02/14 03:48:11;;;;;;;13.32;7.40;;;9.60;99.90;;;;;;5048296;28;20025;-73
2024/02/14 03:50:39;;;;;;;12.68;6.45;;;9.60;99.90;;;;;;5040388;28;20149;-71
2024/02/14 03:53:05;;;;;;;12.85;5.80;;;9.60;99.90;;;;;;5044571;28;20517;-75
2024/02/14 03:55:31;;;;;;;19.75;6.35;;;9.60;99.90;;;;;;5048120;28;20074;-72
2024/02/14 03:57:56;;;;;;;16.65;6.28;;;9.60;99.90;;;;;;5050025;28;20067;-72
2024/02/14 04:00:22;;;;;;;15.77;5.95;;;9.60;99.90;;;;;;5052043;28;20040;-72
2024/02/14 04:02:48;;;;;;;27.95;6.57;;;9.60;99.90;;;;;;5046810;28;20036;-73
2024/02/14 04:05:14;;;;;;;17.13;5.75;;;9.60;99.90;;;;;;5048450;28;20033;-73
2024/02/14 04:07:40;;;;;;;13.40;5.93;;;9.70;99.90;;;;;;5040761;28;20048;-72
2024/02/14 04:10:06;;;;;;;12.27;6.22;;;9.60;99.90;;;;;;5046803;28;20025;-73
2024/02/14 04:12:32;;;;;;;19.92;5.93;;;9.60;99.90;;;;;;5030360;28;20500;-73
2024/02/14 04:14:58;;;;;;;17.13;5.55;;;9.60;99.90;;;;;;5046927;28;20171;-72
2024/02/14 04:17:24;;;;;;;18.75;6.43;;;9.60;99.90;;;;;;5029967;28;20037;-73
2024/02/14 04:19:50;;;;;;;16.75;5.82;;;9.70;99.90;;;;;;5046754;28;20025;-71
2024/02/14 04:22:15;;;;;;;13.70;5.65;;;9.60;99.90;;;;;;5048505;28;20037;-73
2024/02/14 04:24:41;;;;;;;16.77;5.88;;;9.60;99.90;;;;;;5047636;28;20041;-72
2024/02/14 04:27:07;;;;;;;18.67;6.00;;;9.60;99.90;;;;;;5050984;28;20040;-74
2024/02/14 04:29:33;;;;;;;16.85;5.45;;;9.70;99.90;;;;;;5064649;28;20050;-71
2024/02/14 04:31:59;;;;;;;17.92;5.90;;;9.70;99.90;;;;;;5064129;28;20043;-71
2024/02/14 04:34:25;;;;;;;19.55;5.90;;;9.70;99.90;;;;;;5066877;28;20025;-71
2024/02/14 04:36:51;;;;;;;15.52;5.95;;;9.70;99.90;;;;;;5061356;28;20027;-70
2024/02/14 04:39:17;;;;;;;12.73;5.75;;;9.70;99.90;;;;;;5066183;28;20036;-73
2024/02/14 04:41:42;;;;;;;8.95;4.70;;;9.70;99.90;;;;;;5046935;28;20698;-73
2024/02/14 04:44:08;;;;;;;14.13;6.38;;;9.80;99.90;;;;;;5062571;28;20094;-73
2024/02/14 04:46:38;;;;;;;13.60;5.25;;;9.80;99.90;;;;;;5050977;28;20036;-72
2024/02/14 04:49:04;;;;;;;16.80;5.50;;;9.80;99.90;;;;;;5047011;28;20032;-74
2024/02/14 04:51:30;;;;;;;14.48;6.28;;;9.80;99.90;;;;;;5065708;28;20451;-73
2024/02/14 04:53:58;;;;;;;14.57;5.57;;;9.80;99.90;;;;;;5063141;28;20040;-71
2024/02/14 04:56:26;;;;;;;9.88;5.57;;;9.80;99.90;;;;;;5047129;28;20505;-73
2024/02/14 04:58:52;;;;;;;14.85;5.50;;;9.80;99.90;;;;;;5061812;28;20487;-72
2024/02/14 05:01:18;;;;;;;13.40;5.63;;;9.90;99.90;;;;;;5060649;28;20032;-72
2024/02/14 05:03:44;;;;;;;18.42;6.22;;;9.90;99.90;;;;;;5044050;28;20036;-72
2024/02/14 05:06:09;;;;;;;16.63;5.80;;;9.90;99.90;;;;;;5063004;28;20033;-73
2024/02/14 05:08:35;;;;;;;13.90;6.13;;;9.90;99.90;;;;;;5065559;28;20020;-72
2024/02/14 05:11:00;;;;;;;19.33;5.38;;;9.90;99.90;;;;;;5061582;28;21168;-72
2024/02/14 05:13:26;;;;;;;17.00;5.93;;;9.90;99.90;;;;;;5064214;28;20029;-73
2024/02/14 05:15:51;;;;;;;13.90;6.53;;;9.90;99.90;;;;;;5060807;28;20500;-72
2024/02/14 05:18:17;;;;;;;13.02;5.35;;;9.90;99.90;;;;;;5058954;28;20037;-72
2024/02/14 05:20:42;;;;;;;16.10;5.53;;;9.90;99.90;;;;;;5044859;28;20494;-73
2024/02/14 05:23:09;;;;;;;14.90;6.07;;;9.90;99.90;;;;;;5061832;28;20538;-71
2024/02/14 05:25:34;;;;;;;16.85;5.55;;;9.90;99.90;;;;;;5063427;28;20794;-74
2024/02/14 05:28:00;;;;;;;12.07;5.60;;;9.90;99.90;;;;;;5060403;28;20033;-76
2024/02/14 05:30:26;;;;;;;13.85;5.78;;;9.90;99.90;;;;;;5060700;28;20573;-73
2024/02/14 05:32:55;;;;;;;15.57;5.25;;;10.00;99.90;;;;;;5048686;28;20036;-70
2024/02/14 05:35:21;;;;;;;14.18;6.88;;;9.90;99.90;;;;;;5065601;28;20045;-70
2024/02/14 05:37:49;;;;;;;13.68;5.25;;;10.00;99.90;;;;;;5043951;28;20042;-75
2024/02/14 05:40:15;;;;;;;10.10;4.20;;;9.90;99.90;;;;;;5037376;28;20045;-75
2024/02/14 05:42:41;;;;;;;11.60;4.95;;;9.90;99.90;;;;;;5040704;28;20784;-72
2024/02/14 05:45:09;;;;;;;12.27;5.70;;;9.90;99.90;;;;;;5043374;28;20048;-71
2024/02/14 05:47:35;;;;;;;10.20;5.10;;;9.90;99.90;;;;;;5037900;28;20043;-72
2024/02/14 05:50:00;;;;;;;8.13;5.07;;;9.90;99.90;;;;;;5036838;28;21479;-71
2024/02/14 05:52:26;;;;;;;11.18;4.85;;;9.90;99.90;;;;;;5030442;28;20028;-72
2024/02/14 05:54:52;;;;;;;11.10;5.25;;;9.90;99.90;;;;;;5031894;28;20512;-75
2024/02/14 05:57:17;;;;;;;10.52;5.20;;;9.90;99.90;;;;;;5035496;28;20036;-73
2024/02/14 05:59:43;;;;;;;10.77;5.47;;;9.90;99.90;;;;;;5032691;28;20040;-72
2024/02/14 06:02:09;;;;;;;10.77;5.72;;;10.00;99.90;;;;;;5035702;28;20037;-75
2024/02/14 06:04:35;;;;;;;11.02;5.45;;;10.00;99.90;;;;;;5037928;28;20037;-71
2024/02/14 06:07:02;;;;;;;10.65;5.07;;;10.00;99.90;;;;;;5036327;28;20103;-72
2024/02/14 06:09:28;;;;;;;10.07;5.20;;;10.00;99.90;;;;;;5031568;28;20044;-74
2024/02/14 06:11:53;;;;;;;9.55;5.35;;;10.00;99.90;;;;;;5032509;28;20517;-74
2024/02/14 06:14:19;;;;;;;10.98;5.78;;;10.00;99.90;;;;;;5031247;28;20060;-72
2024/02/14 06:16:44;;;;;;;14.55;6.30;;;10.00;99.90;;;;;;5035005;28;20025;-72
2024/02/14 06:19:11;;;;;;;9.88;5.57;;;10.00;99.90;;;;;;5033795;28;20501;-71
2024/02/14 06:21:37;;;;;;;14.32;6.55;;;10.00;99.90;;;;;;5028798;28;20033;-72
2024/02/14 06:24:05;;;;;;;9.65;5.07;;;10.00;99.90;;;;;;5030759;28;20030;-74
2024/02/14 06:26:33;;;;;;;14.82;5.90;;;10.00;99.90;;;;;;5033815;28;20037;-71
2024/02/14 06:28:58;;;;;;;14.38;6.55;;;10.00;99.90;;;;;;5032175;28;20037;-72
2024/02/14 06:31:24;;;;;;;11.93;6.00;;;10.00;99.90;;;;;;5027690;28;20371;-73
2024/02/14 06:33:49;;;;;;;13.02;5.97;;;10.00;99.90;;;;;;5034096;28;20029;-72
2024/02/14 06:36:15;;;;;;;15.07;6.72;;;10.00;99.90;;;;;;5034297;28;20026;-72
2024/02/14 06:38:40;;;;;;;13.07;6.05;;;10.10;99.90;;;;;;5026592;28;20450;-72
2024/02/14 06:41:06;;;;;;;10.70;6.28;;;10.00;99.90;;;;;;5028550;28;20045;-73
2024/02/14 06:43:32;;;;;;;12.10;6.35;;;10.10;99.90;;;;;;5035879;28;20095;-71
2024/02/14 06:45:57;;;;;;;16.10;7.07;;;10.00;99.90;;;;;;5028548;28;20539;-72
2024/02/14 06:48:24;;;;;;;14.70;7.07;;;10.10;99.90;;;;;;5029751;28;20026;-73
2024/02/14 06:50:50;;;;;;;20.05;7.20;;;10.00;99.90;;;;;;5033422;28;20413;-72
2024/02/14 06:53:17;;;;;;;17.20;7.03;;;10.00;99.90;;;;;;5031373;28;20029;-72
2024/02/14 06:55:42;;;;;;;15.55;6.50;;;10.00;99.90;;;;;;5028715;28;20037;-73
2024/02/14 06:58:08;;;;;;;15.30;6.80;;;10.00;99.90;;;;;;5032234;28;20099;-73
2024/02/14 07:00:34;;;;;;;15.48;6.93;;;10.10;99.90;;;;;;5033853;28;20072;-71
2024/02/14 07:02:59;;;;;;;16.83;7.65;;;10.10;99.90;;;;;;5026455;28;20036;-71
2024/02/14 07:05:27;;;;;;;19.65;7.38;;;10.20;99.90;;;;;;5029374;28;20033;-75
2024/02/14 07:07:53;;;;;;;19.10;7.95;;;10.20;99.90;;;;;;5034142;28;20776;-72
2024/02/14 07:10:18;;;;;;;15.82;6.22;;;10.10;99.90;;;;;;5036582;28;20037;-73
2024/02/14 07:12:44;;;;;;;19.02;7.10;;;10.20;99.90;;;;;;5032064;28;20040;-71
2024/02/14 07:15:10;;;;;;;19.88;8.60;;;10.20;99.90;;;;;;5037280;28;20037;-74
2024/02/14 07:17:35;;;;;;;16.05;7.00;;;10.10;99.90;;;;;;5038434;28;20025;-71
2024/02/14 07:20:02;;;;;;;18.65;7.88;;;10.10;99.90;;;;;;5029706;28;20044;-72
2024/02/14 07:22:27;;;;;;;16.92;7.10;;;10.20;99.90;;;;;;5033681;28;20036;-72
2024/02/14 07:24:53;;;;;;;19.08;7.65;;;10.20;99.90;;;;;;5037888;28;20486;-72
2024/02/14 07:27:20;;;;;;;18.63;6.90;;;10.20;99.90;;;;;;5035115;28;20123;-75
2024/02/14 07:29:46;;;;;;;18.00;7.30;;;10.20;99.90;;;;;;5031937;28;20044;-69
2024/02/14 07:32:11;;;;;;;16.17;6.55;;;10.20;99.90;;;;;;5034943;28;20391;-72
2024/02/14 07:34:40;;;;;;;15.00;6.65;;;10.20;99.90;;;;;;5036347;28;20447;-71
2024/02/14 07:37:06;;;;;;;17.63;6.63;;;10.20;99.90;;;;;;5032749;28;20040;-72
2024/02/14 07:39:34;;;;;;;13.73;6.45;;;10.20;99.90;;;;;;5037759;28;20657;-71
2024/02/14 07:42:00;;;;;;;14.27;6.70;;;10.20;99.90;;;;;;5027828;28;20112;-72
2024/02/14 07:44:26;;;;;;;12.00;6.28;;;10.20;99.90;;;;;;5033568;28;20033;-71
2024/02/14 07:46:52;;;;;;;15.73;6.30;;;10.20;99.90;;;;;;5029491;28;20087;-72
2024/02/14 07:49:19;;;;;;;16.17;6.68;;;10.30;99.90;;;;;;5038533;28;20037;-72
2024/02/14 07:51:45;;;;;;;14.18;6.65;;;10.30;99.90;;;;;;5043346;28;20018;-74
2024/02/14 07:54:10;;;;;;;13.18;6.50;;;10.30;99.90;;;;;;5036367;28;20044;-72
2024/02/14 07:56:36;;;;;;;14.20;6.28;;;10.30;99.90;;;;;;5034540;28;20029;-72
2024/02/14 07:59:01;;;;;;;13.82;6.55;;;10.30;99.90;;;;;;5031473;28;20745;-74
2024/02/14 08:01:28;;;;;;;11.48;5.68;;;10.30;99.90;;;;;;5031942;28;20033;-75
2024/02/14 08:03:54;;;;;;;13.88;6.50;;;10.40;99.90;;;;;;5030614;28;20029;-74
2024/02/14 08:06:20;;;;;;;13.32;6.18;;;10.30;99.90;;;;;;5038805;28;20713;-73
2024/02/14 08:08:45;;;;;;;13.32;5.30;;;10.30;99.90;;;;;;5031905;28;20082;-73
2024/02/14 08:11:11;;;;;;;11.18;5.35;;;10.30;99.90;;;;;;5034892;28;20042;-69
2024/02/14 08:13:39;;;;;;;12.13;6.25;;;10.40;99.90;;;;;;5035649;28;20497;-75
2024/02/14 08:16:06;;;;;;;11.23;5.15;;;10.40;99.90;;;;;;5033116;28;20706;-75
2024/02/14 08:18:32;;;;;;;9.23;5.38;;;10.40;99.90;;;;;;5032946;28;20152;-73
2024/02/14 08:20:58;;;;;;;12.63;5.63;;;10.40;99.90;;;;;;5033415;28;20025;-73
2024/02/14 08:23:23;;;;;;;12.40;5.57;;;10.50;99.90;;;;;;5035863;28;20029;-73
2024/02/14 08:25:49;;;;;;;12.82;5.85;;;10.50;99.90;;;;;;5034115;28;20056;-71
2024/02/14 08:28:14;;;;;;;10.57;5.82;;;10.50;99.90;;;;;;5030607;28;20040;-72
2024/02/14 08:30:40;;;;;;;13.02;5.90;;;10.50;99.90;;;;;;5030773;28;20030;-73
2024/02/14 08:33:06;;;;;;;12.30;5.45;;;10.50;99.90;;;;;;5036053;28;20120;-73
2024/02/14 08:35:32;;;;;;;13.13;6.05;;;10.50;99.90;;;;;;5036642;28;20509;-72
2024/02/14 08:37:58;;;;;;;16.10;5.50;;;10.50;99.90;;;;;;5037932;28;20037;-71
2024/02/14 08:40:24;;;;;;;14.30;5.88;;;10.60;99.90;;;;;;5033261;28;20371;-76
2024/02/14 08:42:49;;;;;;;12.30;5.88;;;10.60;99.90;;;;;;5035752;28;20038;-73
2024/02/14 08:45:15;;;;;;;11.38;4.80;;;10.60;99.90;;;;;;5034832;28;20498;-73
2024/02/14 08:47:44;;;;;;;10.05;4.45;;;10.60;99.90;;;;;;5038612;28;20819;-74
2024/02/14 08:50:09;;;;;;;7.70;4.40;;;10.60;99.90;;;;;;5032828;28;20465;-74
2024/02/14 08:52:37;;;;;;;11.77;5.30;;;10.60;99.90;;;;;;5040782;28;20051;-73
2024/02/14 08:55:03;;;;;;;10.75;3.95;;;10.60;99.90;;;;;;5030439;28;20733;-73
2024/02/14 08:57:31;;;;;;;10.10;4.25;;;10.60;99.90;;;;;;5031881;28;20098;-72
2024/02/14 08:59:57;;;;;;;6.57;3.97;;;10.60;99.90;;;;;;5033824;28;20037;-76
2024/02/14 09:02:22;;;;;;;12.43;4.30;;;10.60;99.90;;;;;;5032865;28;20626;-73
2024/02/14 09:04:48;;;;;;;7.72;4.25;;;10.60;99.90;;;;;;5029766;28;20072;-73
2024/02/14 09:07:14;;;;;;;13.95;4.47;;;10.60;99.90;;;;;;5023752;28;20049;-72
2024/02/14 09:09:39;;;;;;;7.05;4.13;;;10.60;99.90;;;;;;5035470;28;20083;-73
2024/02/14 09:12:05;;;;;;;9.23;4.75;;;10.70;99.90;;;;;;5032919;28;20075;-73
2024/02/14 09:14:31;;;;;;;8.45;4.50;;;10.70;99.90;;;;;;5033567;28;20036;-73
2024/02/14 09:16:57;;;;;;;8.98;4.45;;;10.70;99.90;;;;;;5040444;28;20024;-73
2024/02/14 09:19:23;;;;;;;10.15;4.50;;;10.70;99.90;;;;;;5030108;28;20037;-72
2024/02/14 09:21:49;;;;;;;8.60;4.53;;;10.70;99.90;;;;;;5030089;28;20486;-72
2024/02/14 09:24:14;;;;;;;8.65;5.35;;;10.70;99.90;;;;;;5033646;28;20124;-73
2024/02/14 09:26:40;;;;;;;11.80;4.80;;;10.70;99.90;;;;;;5033752;28;20065;-71
2024/02/14 09:29:06;;;;;;;9.75;5.10;;;10.70;99.90;;;;;;5033282;28;20041;-72
2024/02/14 09:31:31;;;;;;;14.20;5.95;;;10.70;99.90;;;;;;5035006;28;20064;-72
2024/02/14 09:33:58;;;;;;;10.38;5.18;;;10.70;99.90;;;;;;5036441;28;20792;-73
2024/02/14 09:36:26;;;;;;;11.13;5.20;;;10.70;99.90;;;;;;5031629;28;20063;-72
2024/02/14 09:38:53;;;;;;;14.32;5.60;;;10.70;99.90;;;;;;5030531;28;20051;-73
2024/02/14 09:41:28;;;;;;;12.05;5.38;;;10.70;99.90;;;;;;5037301;28;20114;-73
2024/02/14 09:43:54;;;;;;;10.43;5.90;;;10.80;99.90;;;;;;5032460;28;20049;-72
2024/02/14 09:46:23;;;;;;;11.77;5.47;;;10.80;99.90;;;;;;5030705;28;20041;-71
2024/02/14 09:48:49;;;;;;;21.30;6.15;;;10.80;99.90;;;;;;5037358;28;20108;-74
2024/02/14 09:51:15;;;;;;;9.60;5.55;;;10.90;99.90;;;;;;5026351;28;20032;-73
2024/02/14 09:53:42;;;;;;;11.20;5.68;;;10.90;99.90;;;;;;5032879;28;20022;-75
2024/02/14 09:56:11;;;;;;;13.88;6.03;;;10.90;99.90;;;;;;5033224;28;20482;-75
2024/02/14 09:58:37;;;;;;;8.98;5.22;;;10.90;99.90;;;;;;5030228;28;20051;-72
2024/02/14 10:01:02;;;;;;;9.57;4.70;;;11.00;99.90;;;;;;5025419;28;20374;-72
2024/02/14 10:03:28;;;;;;;7.75;4.75;;;11.00;99.90;;;;;;5031109;28;20025;-71
2024/02/14 10:05:54;;;;;;;14.73;5.57;;;10.90;99.90;;;;;;5033441;28;20512;-74
2024/02/14 10:08:22;;;;;;;10.43;5.05;;;10.90;99.90;;;;;;5034286;28;20056;-74
2024/02/14 10:10:49;;;;;;;9.70;5.10;;;11.00;99.90;;;;;;5028273;28;20128;-73
2024/02/14 10:13:16;;;;;;;13.93;5.45;;;11.00;99.90;;;;;;5042133;28;20026;-73
2024/02/14 10:15:41;;;;;;;15.73;5.57;;;11.00;99.90;;;;;;5041243;28;20082;-75
2024/02/14 10:18:09;;;;;;;9.30;4.60;;;11.00;99.90;;;;;;5028235;28;20790;-74
2024/02/14 10:20:40;;;;;;;9.32;4.25;;;11.00;99.90;;;;;;5032878;28;20472;-76
2024/02/14 10:23:08;;;;;;;13.07;5.22;;;11.10;99.90;;;;;;5032505;28;20048;-75
2024/02/14 10:25:35;;;;;;;8.95;4.70;;;11.10;99.90;;;;;;5031697;28;20059;-71
2024/02/14 10:28:08;;;;;;;11.80;5.25;;;11.20;99.90;;;;;;5031476;28;20053;-71
2024/02/14 10:30:35;;;;;;;8.82;4.47;;;11.20;99.90;;;;;;5028941;28;20122;-72
2024/02/14 10:33:03;;;;;;;9.25;5.07;;;11.30;99.90;;;;;;5030338;28;20427;-73
2024/02/14 10:35:31;;;;;;;11.00;4.78;;;11.30;99.90;;;;;;5028485;28;20435;-69
2024/02/14 10:38:00;;;;;;;7.18;4.63;;;11.30;99.90;;;;;;5029931;28;20033;-72
2024/02/14 10:40:28;;;;;;;8.35;4.78;;;11.30;99.90;;;;;;5033287;28;20060;-72
2024/02/14 10:42:58;;;;;;;8.82;4.35;;;11.40;99.90;;;;;;5026500;28;20033;-72
2024/02/14 10:45:26;;;;;;;9.77;4.50;;;11.50;99.90;;;;;;5030886;28;20577;-72
2024/02/14 10:47:57;;;;;;;11.50;4.65;;;11.50;99.90;;;;;;5042419;28;20083;-72
2024/02/14 10:50:24;;;;;;;;;;;11.50;99.90;;;;;;5043141;28;20116;-73
2024/02/14 10:52:52;;;;;;;9.73;4.22;;;11.50;99.90;;;;;;5048735;28;19973;-72
2024/02/14 10:55:23;;;;;;;9.00;4.30;;;11.50;99.90;;;;;;5043693;28;20392;-75
2024/02/14 10:57:49;;;;;;;;;;;11.50;99.90;;;;;;5045839;28;20036;-71
2024/02/14 11:00:18;;;;;;;9.85;4.65;;;11.50;99.90;;;;;;5051368;28;20012;-72
2024/02/14 11:02:44;;;;;;;7.05;3.38;;;11.50;99.90;;;;;;5049522;28;20052;-72
2024/02/14 11:05:15;;;;;;;4.68;3.22;;;11.50;99.90;;;;;;5049547;28;20040;-72
2024/02/14 11:07:46;;;;;;;6.25;3.30;;;11.50;99.90;;;;;;5038261;28;20033;-72
2024/02/14 11:10:17;;;;;;;7.50;3.22;;;11.50;99.90;;;;;;5040078;28;20033;-73
2024/02/14 11:12:44;;;;;;;6.13;3.25;;;11.50;99.90;;;;;;5022025;28;20037;-71
2024/02/14 11:15:11;;;;;;;9.00;2.95;;;11.60;99.90;;;;;;5024980;28;20041;-72
2024/02/14 11:17:41;;;;;;;5.20;2.83;;;11.60;99.90;;;;;;5024206;28;20084;-72
2024/02/14 11:20:20;;;;;;;6.20;3.00;;;11.60;99.90;;;;;;5024877;28;20056;-71
2024/02/14 11:23:00;;;;;;;6.50;2.88;;;11.60;99.90;;;;;;5047549;28;20036;-72
2024/02/14 11:25:31;;;;;;;6.97;3.30;;;11.60;99.90;;;;;;5015016;28;20345;-72
2024/02/14 11:27:57;;;;;;;6.22;3.42;;;11.60;99.90;;;;;;5024367;28;20564;-72
2024/02/14 11:30:30;;;;;;;7.55;3.50;;;11.60;99.90;;;;;;5048202;28;20115;-74
2024/02/14 11:33:21;;;;;;;8.55;4.10;;;11.60;99.90;;;;;;5046605;28;20111;-73
2024/02/14 11:35:52;;;;;;;7.80;3.75;;;11.60;99.90;;;;;;5023431;28;20101;-73
2024/02/14 11:38:19;;;;;;;6.85;4.32;;;11.60;99.90;;;;;;5046080;28;20033;-74
2024/02/14 11:40:45;;;;;;;8.93;3.53;;;11.70;99.90;;;;;;5043756;28;20029;-73
2024/02/14 11:43:18;;;;;;;6.22;3.85;;;11.70;99.90;;;;;;5027140;28;20100;-74
2024/02/14 11:45:46;;;;;;;7.70;3.60;;;11.60;99.90;;;;;;5024146;28;20036;-72
2024/02/14 11:48:13;;;;;;;7.00;3.75;;;11.70;99.90;;;;;;5039110;28;20036;-71
2024/02/14 11:50:41;;;;;;;9.52;4.05;;;11.70;99.90;;;;;;5048761;28;20671;-71
2024/02/14 11:53:10;;;;;;;6.30;3.78;;;11.80;99.90;;;;;;5035688;28;20071;-73
2024/02/14 11:55:37;;;;;;;10.65;3.92;;;11.80;99.90;;;;;;5024856;28;20111;-73
2024/02/14 11:58:10;;;;;;;7.88;4.65;;;11.90;99.90;;;;;;5041270;28;20051;-72
2024/02/14 12:00:40;;;;;;;7.90;3.45;;;11.90;99.90;;;;;;5025520;28;20482;-73
2024/02/14 12:03:25;;;;;;;11.55;3.63;;;11.80;99.90;;;;;;5038657;28;20024;-74
2024/02/14 12:05:52;;;;;;;9.15;3.90;;;11.90;99.90;;;;;;5026333;28;20040;-73
2024/02/14 12:08:18;;;;;;;7.63;4.03;;;11.80;99.90;;;;;;5030634;28;20060;-74
2024/02/14 12:10:49;;;;;;;14.02;4.55;;;11.90;99.90;;;;;;5053206;28;20043;-73
2024/02/14 12:13:16;;;;;;;7.55;4.20;;;11.80;99.90;;;;;;5032694;28;20036;-72
2024/02/14 12:15:45;;;;;;;11.23;3.83;;;11.80;99.90;;;;;;5039906;28;20075;-73
2024/02/14 12:18:11;;;;;;;6.90;4.60;;;11.80;99.90;;;;;;5049503;28;20036;-74
2024/02/14 12:20:37;;;;;;;7.55;3.65;;;11.70;99.90;;;;;;5053756;28;20062;-72
2024/02/14 12:23:05;;;;;;;6.47;4.13;;;11.70;99.90;;;;;;5055113;28;20093;-74
2024/02/14 12:25:31;;;;;;;8.18;3.63;;;11.70;99.90;;;;;;5052816;28;20060;-74
2024/02/14 12:27:58;;;;;;;6.43;4.00;;;11.70;99.90;;;;;;5040010;28;20570;-72
2024/02/14 12:30:33;;;;;;;6.57;4.00;;;11.70;99.90;;;;;;5055639;28;20088;-72
2024/02/14 12:32:59;;;;;;;6.95;4.05;;;11.70;99.90;;;;;;5037131;28;20123;-72
2024/02/14 12:35:25;;;;;;;12.60;4.43;;;11.70;99.90;;;;;;5040988;28;20061;-73
2024/02/14 12:37:50;;;;;;;6.03;3.92;;;11.70;99.90;;;;;;5052535;28;20040;-72
2024/02/14 12:40:16;;;;;;;6.35;3.90;;;11.70;99.90;;;;;;5053027;28;20509;-70
2024/02/14 12:42:42;;;;;;;6.60;3.30;;;11.70;99.90;;;;;;5061606;28;20170;-71